This is the latest recevied weather packets stored in our database for station/object HP1CDW-13. If no packets are shown the sender has not sent any weather packets the latest 10 day(s).
| Time | Temp. | Humidity | Pressure | Rain* | Wind** | Luminosity | Snow |
|---|---|---|---|---|---|---|---|
| 1778097890 | 31.67° C | 75% | 1013 hPa | 0 mm | - | - | - |
| 1778097290 | 30.56° C | 78% | 1012.9 hPa | 0 mm | - | - | - |
| 1778096690 | 30.56° C | 80% | 1012.8 hPa | 0 mm | - | - | - |
| 1778096090 | 31.11° C | 77% | 1012.9 hPa | 0 mm | - | - | - |
| 1778095490 | 31.67° C | 74% | 1013 hPa | 0 mm | - | - | - |
| 1778094890 | 31.67° C | 74% | 1013 hPa | 0 mm | - | - | - |
| 1778094290 | 31.67° C | 74% | 1013 hPa | 0 mm | - | - | - |
| 1778093690 | 32.22° C | 72% | 1013 hPa | 0 mm | - | - | - |
| 1778093090 | 32.22° C | 73% | 1013.2 hPa | 0 mm | - | - | - |
| 1778092490 | 32.78° C | 72% | 1013.4 hPa | 0 mm | - | - | - |
| 1778091890 | 32.78° C | 71% | 1013.8 hPa | 0 mm | - | - | - |
| 1778091290 | 32.78° C | 71% | 1014 hPa | 0 mm | - | - | - |
| 1778090690 | 32.78° C | 72% | 1014.2 hPa | 0 mm | - | - | - |
| 1778090090 | 32.78° C | 71% | 1014.1 hPa | 0 mm | - | - | - |
| 1778089490 | 32.78° C | 72% | 1014.4 hPa | 0 mm | - | - | - |
| 1778088890 | 32.22° C | 73% | 1014.4 hPa | 0 mm | - | - | - |
| 1778088290 | 32.22° C | 73% | 1014.3 hPa | 0 mm | - | - | - |
| 1778087690 | 32.22° C | 73% | 1014.3 hPa | 0 mm | - | - | - |
| 1778087090 | 32.22° C | 73% | 1014.8 hPa | 0 mm | - | - | - |
| 1778086490 | 31.67° C | 74% | 1014.8 hPa | 0 mm | - | - | - |
| 1778085890 | 32.22° C | 73% | 1014.9 hPa | 0 mm | - | - | - |
| 1778085290 | 31.67° C | 73% | 1014.8 hPa | 0 mm | - | - | - |
| 1778084690 | 32.22° C | 73% | 1015.1 hPa | 0 mm | - | - | - |
| 1778084090 | 31.67° C | 75% | 1015.3 hPa | 0 mm | - | - | - |
| 1778083490 | 32.22° C | 73% | 1015.5 hPa | 0 mm | - | - | - |
* Rain latest hour (hover to see other rain measurements)
** Current wind speed in m/s (hover to see current wind gust speed)